sensor_id;sensor_type;location;lat;lon;timestamp;pressure;altitude;pressure_sealevel;temperature
34310;BMP280;61664;48.112;11.662;2023-06-26T00:01:03;95630.19;;;22.48
34310;BMP280;61664;48.112;11.662;2023-06-26T00:03:32;95613.06;;;22.32
34310;BMP280;61664;48.112;11.662;2023-06-26T00:05:59;95621.94;;;22.33
34310;BMP280;61664;48.112;11.662;2023-06-26T00:08:28;95617.72;;;22.24
34310;BMP280;61664;48.112;11.662;2023-06-26T00:10:55;95607.13;;;22.13
34310;BMP280;61664;48.112;11.662;2023-06-26T00:13:23;95626.97;;;22.21
34310;BMP280;61664;48.112;11.662;2023-06-26T00:15:51;95611.13;;;22.12
34310;BMP280;61664;48.112;11.662;2023-06-26T00:18:18;95622.00;;;22.12
34310;BMP280;61664;48.112;11.662;2023-06-26T00:20:44;95620.13;;;22.07
34310;BMP280;61664;48.112;11.662;2023-06-26T00:23:12;95619.75;;;22.03
34310;BMP280;61664;48.112;11.662;2023-06-26T00:25:40;95617.88;;;21.98
34310;BMP280;61664;48.112;11.662;2023-06-26T00:28:07;95616.41;;;21.97
34310;BMP280;61664;48.112;11.662;2023-06-26T00:30:33;95622.53;;;21.90
34310;BMP280;61664;48.112;11.662;2023-06-26T00:33:01;95625.47;;;21.92
34310;BMP280;61664;48.112;11.662;2023-06-26T00:35:27;95632.69;;;21.89
34310;BMP280;61664;48.112;11.662;2023-06-26T00:37:54;95623.94;;;21.83
34310;BMP280;61664;48.112;11.662;2023-06-26T00:40:21;95611.34;;;21.72
34310;BMP280;61664;48.112;11.662;2023-06-26T00:42:48;95628.28;;;21.86
34310;BMP280;61664;48.112;11.662;2023-06-26T00:45:22;95621.94;;;21.83
34310;BMP280;61664;48.112;11.662;2023-06-26T00:48:09;95628.81;;;21.84
34310;BMP280;61664;48.112;11.662;2023-06-26T00:50:39;95626.09;;;21.84
34310;BMP280;61664;48.112;11.662;2023-06-26T00:53:06;95620.59;;;21.77
34310;BMP280;61664;48.112;11.662;2023-06-26T00:55:33;95620.75;;;21.71
34310;BMP280;61664;48.112;11.662;2023-06-26T00:57:59;95627.66;;;21.72
34310;BMP280;61664;48.112;11.662;2023-06-26T01:00:27;95617.97;;;21.64
34310;BMP280;61664;48.112;11.662;2023-06-26T01:02:54;95622.66;;;21.63
34310;BMP280;61664;48.112;11.662;2023-06-26T01:05:27;95624.84;;;21.65
34310;BMP280;61664;48.112;11.662;2023-06-26T01:07:56;95619.31;;;21.57
34310;BMP280;61664;48.112;11.662;2023-06-26T01:10:23;95621.50;;;21.59
34310;BMP280;61664;48.112;11.662;2023-06-26T01:12:50;95626.22;;;21.58
34310;BMP280;61664;48.112;11.662;2023-06-26T01:15:17;95621.84;;;21.55
34310;BMP280;61664;48.112;11.662;2023-06-26T01:17:44;95617.06;;;21.48
34310;BMP280;61664;48.112;11.662;2023-06-26T01:20:14;95610.84;;;21.40
34310;BMP280;61664;48.112;11.662;2023-06-26T01:22:51;95598.94;;;21.30
34310;BMP280;61664;48.112;11.662;2023-06-26T01:25:32;95609.34;;;21.39
34310;BMP280;61664;48.112;11.662;2023-06-26T01:28:06;95616.59;;;21.36
34310;BMP280;61664;48.112;11.662;2023-06-26T01:30:37;95617.28;;;21.37
34310;BMP280;61664;48.112;11.662;2023-06-26T01:33:05;95609.09;;;21.29
34310;BMP280;61664;48.112;11.662;2023-06-26T01:35:32;95606.69;;;21.26
34310;BMP280;61664;48.112;11.662;2023-06-26T01:38:19;95614.41;;;21.35
34310;BMP280;61664;48.112;11.662;2023-06-26T01:40:46;95605.59;;;21.29
34310;BMP280;61664;48.112;11.662;2023-06-26T01:43:43;95617.13;;;21.35
34310;BMP280;61664;48.112;11.662;2023-06-26T01:47:19;95617.13;;;21.35
34310;BMP280;61664;48.112;11.662;2023-06-26T01:54:52;95596.53;;;21.26
34310;BMP280;61664;48.112;11.662;2023-06-26T01:57:20;95607.31;;;21.32
34310;BMP280;61664;48.112;11.662;2023-06-26T01:59:51;95600.19;;;21.29
34310;BMP280;61664;48.112;11.662;2023-06-26T02:02:18;95603.31;;;21.33
34310;BMP280;61664;48.112;11.662;2023-06-26T02:04:46;95607.09;;;21.30
34310;BMP280;61664;48.112;11.662;2023-06-26T02:07:14;95594.69;;;21.21
34310;BMP280;61664;48.112;11.662;2023-06-26T02:09:41;95609.28;;;21.31
34310;BMP280;61664;48.112;11.662;2023-06-26T02:12:09;95613.28;;;21.30
34310;BMP280;61664;48.112;11.662;2023-06-26T02:14:36;95581.22;;;21.16
34310;BMP280;61664;48.112;11.662;2023-06-26T02:17:02;95603.56;;;21.22
34310;BMP280;61664;48.112;11.662;2023-06-26T02:19:50;95607.75;;;21.23
34310;BMP280;61664;48.112;11.662;2023-06-26T02:22:55;95608.66;;;21.25
34310;BMP280;61664;48.112;11.662;2023-06-26T02:25:59;95614.66;;;21.24
34310;BMP280;61664;48.112;11.662;2023-06-26T02:29:08;95614.81;;;21.26
34310;BMP280;61664;48.112;11.662;2023-06-26T02:31:35;95598.56;;;21.13
34310;BMP280;61664;48.112;11.662;2023-06-26T02:34:02;95604.31;;;21.22
34310;BMP280;61664;48.112;11.662;2023-06-26T02:36:29;95603.56;;;21.22
34310;BMP280;61664;48.112;11.662;2023-06-26T02:38:56;95609.72;;;21.22
34310;BMP280;61664;48.112;11.662;2023-06-26T02:41:22;95602.97;;;21.16
34310;BMP280;61664;48.112;11.662;2023-06-26T02:43:49;95602.00;;;21.13
34310;BMP280;61664;48.112;11.662;2023-06-26T02:46:16;95603.47;;;21.14
34310;BMP280;61664;48.112;11.662;2023-06-26T02:48:43;95611.84;;;21.16
34310;BMP280;61664;48.112;11.662;2023-06-26T02:51:10;95601.19;;;21.05
34310;BMP280;61664;48.112;11.662;2023-06-26T02:53:37;95611.44;;;21.12
34310;BMP280;61664;48.112;11.662;2023-06-26T02:56:04;95608.50;;;21.10
34310;BMP280;61664;48.112;11.662;2023-06-26T02:58:31;95617.69;;;21.07
34310;BMP280;61664;48.112;11.662;2023-06-26T03:00:57;95616.56;;;21.02
34310;BMP280;61664;48.112;11.662;2023-06-26T03:03:24;95623.06;;;20.99
34310;BMP280;61664;48.112;11.662;2023-06-26T03:05:51;95611.38;;;20.91
34310;BMP280;61664;48.112;11.662;2023-06-26T03:08:18;95606.75;;;20.86
34310;BMP280;61664;48.112;11.662;2023-06-26T03:10:45;95600.94;;;20.82
34310;BMP280;61664;48.112;11.662;2023-06-26T03:13:12;95592.69;;;20.75
34310;BMP280;61664;48.112;11.662;2023-06-26T03:15:38;95602.81;;;20.74
34310;BMP280;61664;48.112;11.662;2023-06-26T03:18:05;95601.34;;;20.73
34310;BMP280;61664;48.112;11.662;2023-06-26T03:20:32;95597.97;;;20.67
34310;BMP280;61664;48.112;11.662;2023-06-26T03:22:59;95609.38;;;20.65
34310;BMP280;61664;48.112;11.662;2023-06-26T03:25:25;95608.66;;;20.65
34310;BMP280;61664;48.112;11.662;2023-06-26T03:27:52;95595.09;;;20.52
34310;BMP280;61664;48.112;11.662;2023-06-26T03:30:19;95601.44;;;20.54
34310;BMP280;61664;48.112;11.662;2023-06-26T03:32:46;95613.69;;;20.61
34310;BMP280;61664;48.112;11.662;2023-06-26T03:35:13;95591.66;;;20.51
34310;BMP280;61664;48.112;11.662;2023-06-26T03:37:40;95596.56;;;20.53
34310;BMP280;61664;48.112;11.662;2023-06-26T03:40:07;95611.69;;;20.61
34310;BMP280;61664;48.112;11.662;2023-06-26T03:42:34;95599.69;;;20.57
34310;BMP280;61664;48.112;11.662;2023-06-26T03:45:02;95607.91;;;20.64
34310;BMP280;61664;48.112;11.662;2023-06-26T03:47:28;95607.00;;;20.62
34310;BMP280;61664;48.112;11.662;2023-06-26T03:49:55;95604.88;;;20.68
34310;BMP280;61664;48.112;11.662;2023-06-26T03:52:54;95613.69;;;20.74
34310;BMP280;61664;48.112;11.662;2023-06-26T03:55:21;95607.19;;;20.77
34310;BMP280;61664;48.112;11.662;2023-06-26T03:57:50;95609.38;;;20.79
34310;BMP280;61664;48.112;11.662;2023-06-26T04:00:17;95621.41;;;20.83
34310;BMP280;61664;48.112;11.662;2023-06-26T04:02:44;95609.59;;;20.81
34310;BMP280;61664;48.112;11.662;2023-06-26T04:05:11;95616.38;;;20.87
34310;BMP280;61664;48.112;11.662;2023-06-26T04:07:38;95605.13;;;20.83
34310;BMP280;61664;48.112;11.662;2023-06-26T04:10:06;95608.53;;;20.84
34310;BMP280;61664;48.112;11.662;2023-06-26T04:12:33;95608.00;;;20.85
34310;BMP280;61664;48.112;11.662;2023-06-26T04:15:00;95611.16;;;20.89
34310;BMP280;61664;48.112;11.662;2023-06-26T04:17:27;95596.81;;;20.89
34310;BMP280;61664;48.112;11.662;2023-06-26T04:19:53;95611.44;;;20.99
34310;BMP280;61664;48.112;11.662;2023-06-26T04:22:20;95611.53;;;21.07
34310;BMP280;61664;48.112;11.662;2023-06-26T04:24:47;95610.06;;;21.05
34310;BMP280;61664;48.112;11.662;2023-06-26T04:27:14;95594.41;;;20.98
34310;BMP280;61664;48.112;11.662;2023-06-26T04:29:41;95609.81;;;21.17
34310;BMP280;61664;48.112;11.662;2023-06-26T04:32:07;95620.06;;;21.24
34310;BMP280;61664;48.112;11.662;2023-06-26T04:34:34;95612.53;;;21.30
34310;BMP280;61664;48.112;11.662;2023-06-26T04:37:03;95613.31;;;21.38
34310;BMP280;61664;48.112;11.662;2023-06-26T04:39:32;95617.94;;;21.43
34310;BMP280;61664;48.112;11.662;2023-06-26T04:41:59;95601.97;;;21.39
34310;BMP280;61664;48.112;11.662;2023-06-26T04:44:26;95606.94;;;21.49
34310;BMP280;61664;48.112;11.662;2023-06-26T04:46:53;95613.03;;;21.62
34310;BMP280;61664;48.112;11.662;2023-06-26T04:49:52;95602.69;;;21.61
34310;BMP280;61664;48.112;11.662;2023-06-26T04:52:56;95608.19;;;21.68
34310;BMP280;61664;48.112;11.662;2023-06-26T04:55:45;95612.66;;;21.79
34310;BMP280;61664;48.112;11.662;2023-06-26T04:58:45;95615.03;;;21.82
34310;BMP280;61664;48.112;11.662;2023-06-26T05:01:26;95591.97;;;21.76
34310;BMP280;61664;48.112;11.662;2023-06-26T05:03:57;95602.63;;;21.95
34310;BMP280;61664;48.112;11.662;2023-06-26T05:06:24;95596.97;;;21.93
34310;BMP280;61664;48.112;11.662;2023-06-26T05:08:51;95607.66;;;22.11
34310;BMP280;61664;48.112;11.662;2023-06-26T05:11:18;95609.22;;;22.28
34310;BMP280;61664;48.112;11.662;2023-06-26T05:13:45;95605.81;;;22.35
34310;BMP280;61664;48.112;11.662;2023-06-26T05:16:11;95596.03;;;22.39
34310;BMP280;61664;48.112;11.662;2023-06-26T05:18:38;95616.84;;;22.57
34310;BMP280;61664;48.112;11.662;2023-06-26T05:21:05;95613.28;;;22.70
34310;BMP280;61664;48.112;11.662;2023-06-26T05:23:34;95609.13;;;22.77
34310;BMP280;61664;48.112;11.662;2023-06-26T05:26:02;95614.78;;;22.86
34310;BMP280;61664;48.112;11.662;2023-06-26T05:28:30;95610.13;;;22.94
34310;BMP280;61664;48.112;11.662;2023-06-26T05:31:01;95623.03;;;23.01
34310;BMP280;61664;48.112;11.662;2023-06-26T05:33:28;95603.56;;;22.97
34310;BMP280;61664;48.112;11.662;2023-06-26T05:35:57;95613.81;;;23.12
34310;BMP280;61664;48.112;11.662;2023-06-26T05:38:26;95617.81;;;23.19
34310;BMP280;61664;48.112;11.662;2023-06-26T05:40:53;95617.13;;;23.26
34310;BMP280;61664;48.112;11.662;2023-06-26T05:43:20;95617.13;;;23.33
34310;BMP280;61664;48.112;11.662;2023-06-26T05:45:53;95618.59;;;23.42
34310;BMP280;61664;48.112;11.662;2023-06-26T05:48:20;95612.66;;;23.51
34310;BMP280;61664;48.112;11.662;2023-06-26T05:50:47;95622.28;;;23.60
34310;BMP280;61664;48.112;11.662;2023-06-26T05:53:14;95617.53;;;23.68
34310;BMP280;61664;48.112;11.662;2023-06-26T05:55:41;95615.94;;;23.72
34310;BMP280;61664;48.112;11.662;2023-06-26T05:58:12;95615.72;;;23.78
34310;BMP280;61664;48.112;11.662;2023-06-26T06:00:39;95616.47;;;23.86
34310;BMP280;61664;48.112;11.662;2023-06-26T06:03:10;95613.00;;;23.85
34310;BMP280;61664;48.112;11.662;2023-06-26T06:05:37;95609.75;;;23.95
34310;BMP280;61664;48.112;11.662;2023-06-26T06:08:04;95604.66;;;23.99
34310;BMP280;61664;48.112;11.662;2023-06-26T06:10:31;95576.09;;;23.84
34310;BMP280;61664;48.112;11.662;2023-06-26T06:12:58;95613.16;;;24.18
34310;BMP280;61664;48.112;11.662;2023-06-26T06:15:25;95604.06;;;24.23
34310;BMP280;61664;48.112;11.662;2023-06-26T06:17:54;95612.03;;;24.36
34310;BMP280;61664;48.112;11.662;2023-06-26T06:20:21;95605.50;;;24.39
34310;BMP280;61664;48.112;11.662;2023-06-26T06:22:48;95606.38;;;24.49
34310;BMP280;61664;48.112;11.662;2023-06-26T06:25:15;95595.63;;;24.59
34310;BMP280;61664;48.112;11.662;2023-06-26T06:27:42;95607.78;;;24.73
34310;BMP280;61664;48.112;11.662;2023-06-26T06:30:10;95607.72;;;24.81
34310;BMP280;61664;48.112;11.662;2023-06-26T06:32:37;95588.22;;;24.84
34310;BMP280;61664;48.112;11.662;2023-06-26T06:35:04;95596.84;;;25.05
34310;BMP280;61664;48.112;11.662;2023-06-26T06:37:39;95602.97;;;25.21
34310;BMP280;61664;48.112;11.662;2023-06-26T06:40:06;95599.25;;;25.34
34310;BMP280;61664;48.112;11.662;2023-06-26T06:42:34;95607.56;;;25.43
34310;BMP280;61664;48.112;11.662;2023-06-26T06:45:03;95612.22;;;25.58
34310;BMP280;61664;48.112;11.662;2023-06-26T06:47:31;95611.19;;;25.71
34310;BMP280;61664;48.112;11.662;2023-06-26T06:49:59;95598.56;;;25.75
34310;BMP280;61664;48.112;11.662;2023-06-26T06:52:30;95605.03;;;25.87
34310;BMP280;61664;48.112;11.662;2023-06-26T06:54:57;95594.72;;;25.95
34310;BMP280;61664;48.112;11.662;2023-06-26T06:57:32;95604.78;;;26.18
34310;BMP280;61664;48.112;11.662;2023-06-26T07:00:04;95608.31;;;26.28
34310;BMP280;61664;48.112;11.662;2023-06-26T07:02:31;95608.00;;;26.41
34310;BMP280;61664;48.112;11.662;2023-06-26T07:04:58;95606.91;;;26.54
34310;BMP280;61664;48.112;11.662;2023-06-26T07:07:28;95617.72;;;26.69
34310;BMP280;61664;48.112;11.662;2023-06-26T07:09:56;95609.56;;;26.78
34310;BMP280;61664;48.112;11.662;2023-06-26T07:12:22;95601.31;;;26.78
34310;BMP280;61664;48.112;11.662;2023-06-26T07:14:49;95610.53;;;27.00
34310;BMP280;61664;48.112;11.662;2023-06-26T07:17:16;95602.53;;;27.12
34310;BMP280;61664;48.112;11.662;2023-06-26T07:19:43;95597.50;;;27.18
34310;BMP280;61664;48.112;11.662;2023-06-26T07:22:10;95606.38;;;27.35
34310;BMP280;61664;48.112;11.662;2023-06-26T07:24:37;95595.44;;;27.45
34310;BMP280;61664;48.112;11.662;2023-06-26T07:27:04;95605.72;;;27.54
34310;BMP280;61664;48.112;11.662;2023-06-26T07:29:31;95598.22;;;27.64
34310;BMP280;61664;48.112;11.662;2023-06-26T07:31:58;95586.13;;;27.67
34310;BMP280;61664;48.112;11.662;2023-06-26T07:34:25;95606.97;;;27.90
34310;BMP280;61664;48.112;11.662;2023-06-26T07:36:52;95609.41;;;27.95
34310;BMP280;61664;48.112;11.662;2023-06-26T07:39:18;95604.09;;;28.07
34310;BMP280;61664;48.112;11.662;2023-06-26T07:41:49;95592.97;;;28.05
34310;BMP280;61664;48.112;11.662;2023-06-26T07:44:16;95609.16;;;28.20
34310;BMP280;61664;48.112;11.662;2023-06-26T07:46:43;95600.06;;;28.17
34310;BMP280;61664;48.112;11.662;2023-06-26T07:49:11;95609.03;;;28.37
34310;BMP280;61664;48.112;11.662;2023-06-26T07:51:38;95606.56;;;28.51
34310;BMP280;61664;48.112;11.662;2023-06-26T07:54:05;95594.97;;;28.62
34310;BMP280;61664;48.112;11.662;2023-06-26T07:56:35;95607.22;;;28.80
34310;BMP280;61664;48.112;11.662;2023-06-26T07:59:18;95611.25;;;28.89
34310;BMP280;61664;48.112;11.662;2023-06-26T08:01:44;95599.09;;;28.92
34310;BMP280;61664;48.112;11.662;2023-06-26T08:04:11;95606.59;;;29.01
34310;BMP280;61664;48.112;11.662;2023-06-26T08:06:38;95604.28;;;29.07
34310;BMP280;61664;48.112;11.662;2023-06-26T08:09:07;95606.13;;;29.14
34310;BMP280;61664;48.112;11.662;2023-06-26T08:11:34;95595.78;;;29.24
34310;BMP280;61664;48.112;11.662;2023-06-26T08:14:01;95594.28;;;29.33
34310;BMP280;61664;48.112;11.662;2023-06-26T08:16:27;95605.59;;;29.37
34310;BMP280;61664;48.112;11.662;2023-06-26T08:18:54;95592.34;;;29.45
34310;BMP280;61664;48.112;11.662;2023-06-26T08:21:21;95593.72;;;29.55
34310;BMP280;61664;48.112;11.662;2023-06-26T08:23:48;95591.53;;;29.63
34310;BMP280;61664;48.112;11.662;2023-06-26T08:26:15;95598.09;;;29.80
34310;BMP280;61664;48.112;11.662;2023-06-26T08:28:41;95590.47;;;29.90
34310;BMP280;61664;48.112;11.662;2023-06-26T08:31:09;95595.75;;;30.07
34310;BMP280;61664;48.112;11.662;2023-06-26T08:33:35;95600.09;;;30.22
34310;BMP280;61664;48.112;11.662;2023-06-26T08:36:02;95596.34;;;30.38
34310;BMP280;61664;48.112;11.662;2023-06-26T08:38:29;95598.53;;;30.51
34310;BMP280;61664;48.112;11.662;2023-06-26T08:40:56;95600.94;;;30.57
34310;BMP280;61664;48.112;11.662;2023-06-26T08:43:23;95588.09;;;30.62
34310;BMP280;61664;48.112;11.662;2023-06-26T08:45:50;95594.34;;;30.62
34310;BMP280;61664;48.112;11.662;2023-06-26T08:48:18;95597.25;;;30.76
34310;BMP280;61664;48.112;11.662;2023-06-26T08:50:54;95601.13;;;30.94
34310;BMP280;61664;48.112;11.662;2023-06-26T08:53:48;95601.50;;;31.46
34310;BMP280;61664;48.112;11.662;2023-06-26T08:56:17;95593.34;;;32.61
34310;BMP280;61664;48.112;11.662;2023-06-26T08:58:48;95596.28;;;33.88
34310;BMP280;61664;48.112;11.662;2023-06-26T09:01:16;95590.28;;;35.01
34310;BMP280;61664;48.112;11.662;2023-06-26T09:03:44;95576.19;;;35.97
34310;BMP280;61664;48.112;11.662;2023-06-26T09:06:11;95571.00;;;37.03
34310;BMP280;61664;48.112;11.662;2023-06-26T09:08:38;95568.44;;;37.98
34310;BMP280;61664;48.112;11.662;2023-06-26T09:11:05;95584.19;;;38.86
34310;BMP280;61664;48.112;11.662;2023-06-26T09:13:32;95583.06;;;39.53
34310;BMP280;61664;48.112;11.662;2023-06-26T09:15:59;95579.59;;;39.84
34310;BMP280;61664;48.112;11.662;2023-06-26T09:18:26;95574.97;;;40.31
34310;BMP280;61664;48.112;11.662;2023-06-26T09:20:54;95570.19;;;40.75
34310;BMP280;61664;48.112;11.662;2023-06-26T09:23:21;95564.03;;;41.26
34310;BMP280;61664;48.112;11.662;2023-06-26T09:25:48;95567.69;;;41.85
34310;BMP280;61664;48.112;11.662;2023-06-26T09:28:16;95574.81;;;42.50
34310;BMP280;61664;48.112;11.662;2023-06-26T09:30:44;95553.50;;;43.05
34310;BMP280;61664;48.112;11.662;2023-06-26T09:33:19;95579.88;;;43.54
34310;BMP280;61664;48.112;11.662;2023-06-26T09:35:47;95566.38;;;43.32
34310;BMP280;61664;48.112;11.662;2023-06-26T09:38:14;95580.50;;;43.38
34310;BMP280;61664;48.112;11.662;2023-06-26T09:40:41;95572.16;;;43.58
34310;BMP280;61664;48.112;11.662;2023-06-26T09:43:10;95572.81;;;43.55
34310;BMP280;61664;48.112;11.662;2023-06-26T09:45:40;95569.47;;;43.82
34310;BMP280;61664;48.112;11.662;2023-06-26T09:48:07;95572.41;;;44.23
34310;BMP280;61664;48.112;11.662;2023-06-26T09:50:35;95556.25;;;44.25
34310;BMP280;61664;48.112;11.662;2023-06-26T09:53:11;95558.72;;;43.47
34310;BMP280;61664;48.112;11.662;2023-06-26T09:55:40;95551.34;;;42.25
34310;BMP280;61664;48.112;11.662;2023-06-26T09:58:11;95560.25;;;41.08
34310;BMP280;61664;48.112;11.662;2023-06-26T10:00:42;95552.91;;;40.49
34310;BMP280;61664;48.112;11.662;2023-06-26T10:03:11;95547.28;;;40.87
34310;BMP280;61664;48.112;11.662;2023-06-26T10:05:41;95548.59;;;40.80
34310;BMP280;61664;48.112;11.662;2023-06-26T10:08:08;95535.47;;;40.16
34310;BMP280;61664;48.112;11.662;2023-06-26T10:10:37;95544.56;;;40.17
34310;BMP280;61664;48.112;11.662;2023-06-26T10:13:15;95544.69;;;40.59
34310;BMP280;61664;48.112;11.662;2023-06-26T10:15:44;95548.66;;;41.27
34310;BMP280;61664;48.112;11.662;2023-06-26T10:18:13;95548.09;;;40.93
34310;BMP280;61664;48.112;11.662;2023-06-26T10:20:42;95534.38;;;40.69
34310;BMP280;61664;48.112;11.662;2023-06-26T10:23:10;95547.16;;;40.41
34310;BMP280;61664;48.112;11.662;2023-06-26T10:25:40;95535.97;;;41.22
34310;BMP280;61664;48.112;11.662;2023-06-26T10:28:08;95534.13;;;42.57
34310;BMP280;61664;48.112;11.662;2023-06-26T10:30:36;95550.38;;;43.67
34310;BMP280;61664;48.112;11.662;2023-06-26T10:33:07;95542.72;;;43.83
34310;BMP280;61664;48.112;11.662;2023-06-26T10:35:42;95531.06;;;43.11
34310;BMP280;61664;48.112;11.662;2023-06-26T10:38:09;95525.38;;;43.01
34310;BMP280;61664;48.112;11.662;2023-06-26T10:40:44;95528.63;;;42.01
34310;BMP280;61664;48.112;11.662;2023-06-26T10:43:13;95538.03;;;41.20
34310;BMP280;61664;48.112;11.662;2023-06-26T10:45:47;95529.38;;;41.50
34310;BMP280;61664;48.112;11.662;2023-06-26T10:48:21;95534.22;;;42.67
34310;BMP280;61664;48.112;11.662;2023-06-26T10:50:50;95521.56;;;43.70
34310;BMP280;61664;48.112;11.662;2023-06-26T11:01:19;95529.44;;;42.80
34310;BMP280;61664;48.112;11.662;2023-06-26T11:06:25;95523.06;;;42.77
34310;BMP280;61664;48.112;11.662;2023-06-26T11:14:26;95511.47;;;40.03
34310;BMP280;61664;48.112;11.662;2023-06-26T11:16:58;95516.47;;;39.16
34310;BMP280;61664;48.112;11.662;2023-06-26T11:19:26;95525.19;;;38.47
34310;BMP280;61664;48.112;11.662;2023-06-26T11:21:58;95520.56;;;38.06
34310;BMP280;61664;48.112;11.662;2023-06-26T11:24:26;95518.06;;;37.68
34310;BMP280;61664;48.112;11.662;2023-06-26T11:26:53;95523.94;;;37.33
34310;BMP280;61664;48.112;11.662;2023-06-26T11:29:20;95519.25;;;37.18
34310;BMP280;61664;48.112;11.662;2023-06-26T11:31:47;95523.00;;;37.05
34310;BMP280;61664;48.112;11.662;2023-06-26T11:34:14;95512.63;;;36.86
34310;BMP280;61664;48.112;11.662;2023-06-26T11:36:42;95508.84;;;36.77
34310;BMP280;61664;48.112;11.662;2023-06-26T11:41:38;95495.28;;;36.48
34310;BMP280;61664;48.112;11.662;2023-06-26T11:44:07;95504.25;;;36.44
34310;BMP280;61664;48.112;11.662;2023-06-26T11:46:35;95509.50;;;36.36
34310;BMP280;61664;48.112;11.662;2023-06-26T11:49:06;95509.72;;;36.23
34310;BMP280;61664;48.112;11.662;2023-06-26T11:51:33;95506.91;;;36.03
34310;BMP280;61664;48.112;11.662;2023-06-26T11:54:01;95517.41;;;36.24
34310;BMP280;61664;48.112;11.662;2023-06-26T11:56:32;95499.72;;;36.55
34310;BMP280;61664;48.112;11.662;2023-06-26T11:59:03;95514.16;;;36.91
34310;BMP280;61664;48.112;11.662;2023-06-26T12:01:35;95505.41;;;36.79
34310;BMP280;61664;48.112;11.662;2023-06-26T12:04:04;95501.28;;;36.80
34310;BMP280;61664;48.112;11.662;2023-06-26T12:06:33;95509.63;;;36.80
34310;BMP280;61664;48.112;11.662;2023-06-26T12:09:03;95509.22;;;36.48
34310;BMP280;61664;48.112;11.662;2023-06-26T12:11:33;95501.03;;;36.32
34310;BMP280;61664;48.112;11.662;2023-06-26T12:14:01;95505.63;;;36.06
34310;BMP280;61664;48.112;11.662;2023-06-26T12:16:33;95496.06;;;36.11
34310;BMP280;61664;48.112;11.662;2023-06-26T12:19:04;95498.38;;;36.36
34310;BMP280;61664;48.112;11.662;2023-06-26T12:24:04;95499.09;;;36.56
34310;BMP280;61664;48.112;11.662;2023-06-26T12:26:31;95490.75;;;36.56
34310;BMP280;61664;48.112;11.662;2023-06-26T12:29:09;95528.63;;;36.65
34310;BMP280;61664;48.112;11.662;2023-06-26T12:31:45;95494.09;;;36.53
34310;BMP280;61664;48.112;11.662;2023-06-26T12:34:14;95488.81;;;36.41
34310;BMP280;61664;48.112;11.662;2023-06-26T12:36:49;95474.25;;;36.03
34310;BMP280;61664;48.112;11.662;2023-06-26T12:39:20;95502.44;;;35.96
34310;BMP280;61664;48.112;11.662;2023-06-26T12:44:24;95487.81;;;36.13
34310;BMP280;61664;48.112;11.662;2023-06-26T12:46:59;95485.91;;;36.37
34310;BMP280;61664;48.112;11.662;2023-06-26T12:49:43;95470.41;;;36.32
34310;BMP280;61664;48.112;11.662;2023-06-26T12:52:12;95485.66;;;36.31
34310;BMP280;61664;48.112;11.662;2023-06-26T12:54:41;95486.94;;;36.08
34310;BMP280;61664;48.112;11.662;2023-06-26T12:57:09;95482.63;;;36.23
34310;BMP280;61664;48.112;11.662;2023-06-26T12:59:37;95485.16;;;36.76
34310;BMP280;61664;48.112;11.662;2023-06-26T13:02:04;95477.94;;;37.32
34310;BMP280;61664;48.112;11.662;2023-06-26T13:04:32;95487.69;;;37.78
34310;BMP280;61664;48.112;11.662;2023-06-26T13:06:59;95481.56;;;38.08
34310;BMP280;61664;48.112;11.662;2023-06-26T13:09:27;95486.28;;;38.27
34310;BMP280;61664;48.112;11.662;2023-06-26T13:11:54;95472.66;;;38.39
34310;BMP280;61664;48.112;11.662;2023-06-26T13:14:21;95490.13;;;38.39
34310;BMP280;61664;48.112;11.662;2023-06-26T13:16:48;95470.56;;;38.65
34310;BMP280;61664;48.112;11.662;2023-06-26T13:19:15;95464.78;;;39.15
34310;BMP280;61664;48.112;11.662;2023-06-26T13:21:43;95453.13;;;39.56
34310;BMP280;61664;48.112;11.662;2023-06-26T13:24:10;95463.91;;;40.03
34310;BMP280;61664;48.112;11.662;2023-06-26T13:26:37;95467.75;;;40.62
34310;BMP280;61664;48.112;11.662;2023-06-26T13:29:05;95452.22;;;40.97
34310;BMP280;61664;48.112;11.662;2023-06-26T13:31:32;95459.28;;;40.58
34310;BMP280;61664;48.112;11.662;2023-06-26T13:34:00;95439.56;;;40.10
34310;BMP280;61664;48.112;11.662;2023-06-26T13:36:27;95465.06;;;39.92
34310;BMP280;61664;48.112;11.662;2023-06-26T13:38:54;95457.34;;;40.29
34310;BMP280;61664;48.112;11.662;2023-06-26T13:41:24;95444.88;;;41.21
34310;BMP280;61664;48.112;11.662;2023-06-26T13:43:51;95451.06;;;41.16
34310;BMP280;61664;48.112;11.662;2023-06-26T13:46:20;95447.81;;;40.86
34310;BMP280;61664;48.112;11.662;2023-06-26T13:48:47;95448.13;;;40.60
34310;BMP280;61664;48.112;11.662;2023-06-26T13:51:14;95447.66;;;40.75
34310;BMP280;61664;48.112;11.662;2023-06-26T13:53:41;95449.38;;;40.53
34310;BMP280;61664;48.112;11.662;2023-06-26T13:56:08;95442.69;;;39.92
34310;BMP280;61664;48.112;11.662;2023-06-26T13:58:36;95448.19;;;39.54
34310;BMP280;61664;48.112;11.662;2023-06-26T14:01:03;95445.91;;;39.15
34310;BMP280;61664;48.112;11.662;2023-06-26T14:03:33;95447.13;;;38.78
34310;BMP280;61664;48.112;11.662;2023-06-26T14:06:00;95447.78;;;38.49
34310;BMP280;61664;48.112;11.662;2023-06-26T14:08:27;95463.59;;;38.13
34310;BMP280;61664;48.112;11.662;2023-06-26T14:10:54;95443.97;;;37.61
34310;BMP280;61664;48.112;11.662;2023-06-26T14:13:22;95434.38;;;37.21
34310;BMP280;61664;48.112;11.662;2023-06-26T14:15:50;95447.47;;;36.95
34310;BMP280;61664;48.112;11.662;2023-06-26T14:18:20;95444.97;;;37.48
34310;BMP280;61664;48.112;11.662;2023-06-26T14:20:51;95436.09;;;39.12
34310;BMP280;61664;48.112;11.662;2023-06-26T14:23:18;95441.91;;;40.67
34310;BMP280;61664;48.112;11.662;2023-06-26T14:25:45;95435.25;;;41.96
34310;BMP280;61664;48.112;11.662;2023-06-26T14:28:15;95436.97;;;43.18
34310;BMP280;61664;48.112;11.662;2023-06-26T14:30:42;95440.09;;;44.35
34310;BMP280;61664;48.112;11.662;2023-06-26T14:33:09;95435.69;;;45.37
34310;BMP280;61664;48.112;11.662;2023-06-26T14:35:36;95444.63;;;45.79
34310;BMP280;61664;48.112;11.662;2023-06-26T14:38:03;95421.19;;;46.01